Terminal Aerodrome Forecast
Issued by NWS Cleveland, OH

Home | Current Version | Previous Version | Graphics & Text | Print | Product List | Glossary On
Versions: 1 2 3 4 5 6 7 8 9 10 11 12 13 14 15 16 17 18 19 20 21 22 23 24 25
000
FTUS41 KCLE 012100 AAB
TAFTOL
TAF AMD
KTOL 012140Z 0122/0218 30004KT 5SM BR OVC045
      TEMPO 0122/0124 6SM -SN OVC025
     FM020000 25008KT P6SM OVC060
     FM021200 28010KT P6SM SCT020=

USA.gov is the U.S. government's official web portal to all federal, state and local government web resources and services.